createdAt,value
2018-12-31T00:02:22.454Z,4.90
2018-12-31T00:04:52.698Z,4.70
2018-12-31T00:07:23.064Z,5.37
2018-12-31T00:09:53.416Z,5.00
2018-12-31T00:12:23.756Z,5.33
2018-12-31T00:14:54.097Z,6.57
2018-12-31T00:17:24.419Z,8.63
2018-12-31T00:19:54.789Z,6.97
2018-12-31T00:22:25.129Z,5.92
2018-12-31T00:24:55.467Z,5.57
2018-12-31T00:27:25.780Z,4.83
2018-12-31T00:29:56.170Z,5.83
2018-12-31T00:32:25.840Z,5.70
2018-12-31T00:34:56.060Z,5.97
2018-12-31T00:37:25.740Z,6.20
2018-12-31T00:39:55.972Z,7.07
2018-12-31T00:42:26.347Z,6.57
2018-12-31T00:44:56.656Z,6.60
2018-12-31T00:47:26.984Z,7.03
2018-12-31T00:49:57.292Z,7.57
2018-12-31T00:52:26.971Z,6.40
2018-12-31T00:54:57.212Z,6.40
2018-12-31T00:57:26.872Z,8.00
2018-12-31T00:59:57.104Z,7.23
2018-12-31T01:02:27.453Z,7.37
2018-12-31T01:04:58.024Z,8.47
2018-12-31T01:07:27.720Z,6.97
2018-12-31T01:09:58.316Z,7.80
2018-12-31T01:12:27.952Z,9.53
2018-12-31T01:14:58.503Z,7.77
2018-12-31T01:17:28.844Z,7.10
2018-12-31T01:19:59.284Z,7.77
2018-12-31T01:22:29.639Z,8.65
2018-12-31T01:25:00.167Z,8.37
2018-12-31T01:27:30.428Z,9.93
2018-12-31T01:30:00.761Z,8.33
2018-12-31T01:32:31.175Z,9.23
2018-12-31T01:35:01.528Z,8.60
2018-12-31T01:37:31.847Z,11.55
2018-12-31T01:40:02.157Z,9.23
2018-12-31T01:42:32.510Z,8.50
2018-12-31T01:45:02.840Z,9.80
2018-12-31T01:47:32.550Z,11.10
2018-12-31T01:50:02.782Z,9.20
2018-12-31T01:52:33.120Z,11.43
2018-12-31T01:55:03.461Z,10.27
2018-12-31T01:57:33.465Z,11.13
2018-12-31T02:00:03.792Z,10.57
2018-12-31T02:02:34.132Z,10.63
2018-12-31T02:05:04.660Z,11.87
2018-12-31T02:07:35.016Z,11.33
2018-12-31T02:10:05.531Z,10.53
2018-12-31T02:12:35.868Z,10.03
2018-12-31T02:15:06.666Z,11.73
2018-12-31T02:17:36.373Z,11.53
2018-12-31T02:20:06.897Z,13.80
2018-12-31T02:22:36.585Z,11.50
2018-12-31T02:25:06.828Z,10.97
2018-12-31T02:27:37.183Z,10.48
2018-12-31T02:30:07.515Z,9.15
2018-12-31T02:32:37.840Z,9.50
2018-12-31T02:35:07.511Z,8.07
2018-12-31T02:37:37.097Z,9.00
2018-12-31T02:40:06.756Z,8.30
2018-12-31T02:42:36.977Z,8.90
2018-12-31T02:45:06.852Z,9.03
2018-12-31T02:47:37.084Z,9.33
2018-12-31T02:50:06.882Z,9.23
2018-12-31T02:52:37.539Z,9.53
2018-12-31T02:55:07.224Z,8.13
2018-12-31T02:57:37.697Z,8.73
2018-12-31T03:00:08.088Z,8.30
2018-12-31T03:02:38.628Z,8.35
2018-12-31T03:05:08.972Z,9.60
2018-12-31T03:07:38.628Z,9.87
2018-12-31T03:10:08.215Z,9.80
2018-12-31T03:12:38.476Z,10.13
2018-12-31T03:15:08.787Z,10.80
2018-12-31T03:17:39.122Z,10.43
2018-12-31T03:20:08.797Z,9.93
2018-12-31T03:22:39.041Z,10.40
2018-12-31T03:25:09.373Z,11.10
2018-12-31T03:27:39.035Z,10.40
2018-12-31T03:30:09.257Z,10.87
2018-12-31T03:32:39.622Z,10.90
2018-12-31T03:35:09.944Z,10.47
2018-12-31T03:37:40.285Z,11.00
2018-12-31T03:40:10.598Z,8.93
2018-12-31T03:42:41.103Z,9.67
2018-12-31T03:45:11.424Z,9.23
2018-12-31T03:47:41.769Z,9.70
2018-12-31T03:50:12.081Z,11.37
2018-12-31T03:52:42.443Z,10.07
2018-12-31T03:55:12.760Z,9.33
2018-12-31T03:57:43.116Z,9.27
2018-12-31T04:00:13.434Z,9.27
2018-12-31T04:02:43.797Z,10.17
2018-12-31T04:05:14.125Z,9.67
2018-12-31T04:07:43.822Z,10.00
2018-12-31T04:10:14.053Z,9.53
2018-12-31T04:12:43.711Z,9.53
2018-12-31T04:15:13.968Z,9.13
2018-12-31T04:17:44.304Z,9.33
2018-12-31T04:20:14.637Z,8.77
2018-12-31T04:23:03.921Z,8.17
2018-12-31T04:25:34.331Z,8.67
2018-12-31T04:28:03.984Z,7.90
2018-12-31T04:30:34.348Z,8.73
2018-12-31T04:33:04.693Z,7.77
2018-12-31T04:35:35.011Z,9.17
2018-12-31T04:38:04.815Z,8.30
2018-12-31T04:40:35.060Z,7.73
2018-12-31T04:43:05.505Z,7.47
2018-12-31T04:45:35.832Z,7.63
2018-12-31T04:48:06.198Z,7.50
2018-12-31T04:50:36.503Z,7.47
2018-12-31T04:53:06.203Z,9.03
2018-12-31T04:55:43.991Z,8.30
2018-12-31T04:58:08.480Z,8.83
2018-12-31T05:00:38.167Z,9.30
2018-12-31T05:03:08.449Z,8.87
2018-12-31T05:05:38.099Z,9.17
2018-12-31T05:08:08.384Z,9.33
2018-12-31T05:10:38.050Z,9.53
2018-12-31T05:13:08.312Z,9.50
2018-12-31T05:15:38.620Z,8.93
2018-12-31T05:18:08.962Z,8.58
2018-12-31T05:20:39.308Z,7.67
2018-12-31T05:23:09.666Z,8.37
2018-12-31T05:25:39.989Z,8.37
2018-12-31T05:28:10.328Z,8.07
2018-12-31T05:30:40.656Z,9.43
2018-12-31T05:33:11.011Z,9.40
2018-12-31T05:35:41.343Z,9.93
2018-12-31T05:38:11.678Z,9.90
2018-12-31T05:40:42.004Z,9.40
2018-12-31T05:43:12.360Z,10.35
2018-12-31T05:45:42.699Z,10.57
2018-12-31T05:48:13.048Z,10.00
2018-12-31T05:50:43.391Z,10.57
2018-12-31T05:53:13.755Z,9.17
2018-12-31T05:55:44.080Z,10.80
2018-12-31T05:58:14.416Z,9.43
2018-12-31T06:00:44.757Z,9.53
2018-12-31T06:03:15.116Z,9.50
2018-12-31T06:05:45.433Z,11.20
2018-12-31T06:08:15.772Z,9.50
2018-12-31T06:10:46.104Z,9.07
2018-12-31T06:13:15.795Z,9.83
2018-12-31T06:15:46.175Z,9.70
2018-12-31T06:18:16.517Z,10.27
2018-12-31T06:20:46.214Z,9.73
2018-12-31T06:23:16.480Z,9.97
2018-12-31T06:25:46.398Z,10.57
2018-12-31T06:28:16.647Z,11.23
2018-12-31T06:30:46.329Z,9.43
2018-12-31T06:33:16.589Z,9.73
2018-12-31T06:35:46.277Z,10.10
2018-12-31T06:38:15.892Z,10.17
2018-12-31T06:40:45.536Z,9.80
2018-12-31T06:43:15.783Z,9.27
2018-12-31T06:45:45.552Z,10.93
2018-12-31T06:48:15.832Z,12.47
2018-12-31T06:50:45.504Z,11.77
2018-12-31T06:53:15.856Z,11.47
2018-12-31T06:55:46.195Z,10.53
2018-12-31T06:58:16.559Z,11.60
2018-12-31T07:00:46.901Z,12.13
2018-12-31T07:03:16.599Z,11.20
2018-12-31T07:05:46.188Z,11.73
2018-12-31T07:08:16.432Z,10.13
2018-12-31T07:10:46.108Z,10.87
2018-12-31T07:13:16.376Z,12.70
2018-12-31T07:15:46.725Z,11.17
2018-12-31T07:18:17.364Z,10.80
2018-12-31T07:20:47.708Z,10.40
2018-12-31T07:23:18.056Z,10.90
2018-12-31T07:25:47.728Z,9.37
2018-12-31T07:28:17.972Z,11.20
2018-12-31T07:30:47.649Z,9.83
2018-12-31T07:33:18.243Z,10.60
2018-12-31T07:35:48.581Z,11.03
2018-12-31T07:38:19.685Z,10.93
2018-12-31T07:40:50.111Z,13.10
2018-12-31T07:43:20.385Z,10.03
2018-12-31T07:45:50.812Z,10.93
2018-12-31T07:48:21.539Z,11.27
2018-12-31T07:50:51.220Z,10.90
2018-12-31T07:53:21.321Z,10.90
2018-12-31T07:55:50.931Z,11.20
2018-12-31T07:58:20.506Z,10.93
2018-12-31T08:00:51.198Z,11.40
2018-12-31T08:03:21.547Z,11.00
2018-12-31T08:05:54.536Z,10.57
2018-12-31T08:08:24.388Z,10.17
2018-12-31T08:10:54.609Z,12.77
2018-12-31T08:13:24.892Z,10.63
2018-12-31T08:15:55.232Z,11.87
2018-12-31T08:18:25.588Z,10.05
2018-12-31T08:20:55.316Z,13.40
2018-12-31T08:23:25.632Z,10.10
2018-12-31T08:25:55.317Z,11.07
2018-12-31T08:28:24.889Z,10.97
2018-12-31T08:30:54.484Z,11.63
2018-12-31T08:33:24.850Z,10.93
2018-12-31T08:35:55.191Z,12.50
2018-12-31T08:38:25.520Z,10.83
2018-12-31T08:40:55.898Z,11.30
2018-12-31T08:43:26.256Z,10.95
2018-12-31T08:45:59.460Z,11.47
2018-12-31T08:48:29.808Z,11.07
2018-12-31T08:51:00.161Z,11.60
2018-12-31T08:53:29.874Z,10.15
2018-12-31T08:56:00.107Z,10.47
2018-12-31T08:58:29.788Z,11.67
2018-12-31T09:01:00.072Z,11.97
2018-12-31T09:03:30.434Z,10.40
2018-12-31T09:06:00.844Z,9.80
2018-12-31T09:08:31.245Z,12.20
2018-12-31T09:11:01.606Z,9.65
2018-12-31T09:13:31.972Z,10.73
2018-12-31T09:16:01.656Z,10.50
2018-12-31T09:18:31.936Z,9.40
2018-12-31T09:21:01.652Z,9.17
2018-12-31T09:23:31.900Z,10.72
2018-12-31T09:26:01.770Z,10.00
2018-12-31T09:28:32.021Z,10.17
2018-12-31T09:31:01.704Z,10.03
2018-12-31T09:33:31.327Z,11.30
2018-12-31T09:36:00.908Z,8.93
2018-12-31T09:38:31.157Z,12.37
2018-12-31T09:41:00.828Z,10.03
2018-12-31T09:43:30.431Z,10.20
2018-12-31T09:46:00.144Z,10.43
2018-12-31T09:48:30.408Z,9.13
2018-12-31T09:51:00.208Z,9.43
2018-12-31T09:53:30.477Z,9.83
2018-12-31T09:56:00.147Z,9.93
2018-12-31T09:58:30.275Z,9.93
2018-12-31T10:01:00.543Z,9.63
2018-12-31T10:03:31.352Z,9.97
2018-12-31T10:06:01.810Z,9.33
2018-12-31T10:08:32.133Z,9.17
2018-12-31T10:11:01.846Z,8.77
2018-12-31T10:13:31.434Z,7.37
2018-12-31T10:16:01.047Z,8.03
2018-12-31T10:18:31.275Z,6.93
2018-12-31T10:21:00.997Z,7.10
2018-12-31T10:23:31.243Z,6.77
2018-12-31T10:26:01.012Z,7.03
2018-12-31T10:28:32.133Z,7.70
2018-12-31T10:31:01.843Z,9.97
2018-12-31T10:33:32.138Z,6.87
2018-12-31T10:36:01.848Z,7.97
2018-12-31T10:38:32.173Z,6.80
2018-12-31T10:41:02.662Z,7.90
2018-12-31T10:43:32.381Z,6.27
2018-12-31T10:46:02.612Z,6.23
2018-12-31T10:48:32.305Z,6.00
2018-12-31T10:51:02.652Z,6.50
2018-12-31T10:53:32.340Z,6.03
2018-12-31T10:56:02.045Z,6.10
2018-12-31T10:58:31.545Z,6.83
2018-12-31T11:01:01.171Z,6.60
2018-12-31T11:03:30.795Z,6.20
2018-12-31T11:06:01.016Z,6.17
2018-12-31T11:08:30.685Z,6.50
2018-12-31T11:11:00.962Z,6.63
2018-12-31T11:13:30.640Z,7.90
2018-12-31T11:16:00.895Z,6.37
2018-12-31T11:18:30.834Z,6.63
2018-12-31T11:21:00.450Z,6.03
2018-12-31T11:23:31.073Z,5.67
2018-12-31T11:26:01.404Z,4.80
2018-12-31T11:28:31.079Z,5.87
2018-12-31T11:31:00.842Z,6.37
2018-12-31T11:33:31.096Z,6.43
2018-12-31T11:36:00.781Z,6.43
2018-12-31T11:38:30.363Z,4.43
2018-12-31T11:41:00.000Z,5.20
2018-12-31T11:43:29.606Z,4.60
2018-12-31T11:45:59.888Z,4.43
2018-12-31T11:48:29.586Z,4.77
2018-12-31T11:50:59.243Z,4.40
2018-12-31T11:53:28.864Z,5.13
2018-12-31T11:55:58.464Z,6.37
2018-12-31T11:58:28.052Z,5.23
2018-12-31T12:00:58.308Z,10.73
2018-12-31T12:03:28.016Z,3.80
2018-12-31T12:05:57.619Z,3.47
2018-12-31T12:08:27.192Z,3.70
2018-12-31T12:10:57.469Z,4.20
2018-12-31T12:13:27.355Z,5.17
2018-12-31T12:15:57.631Z,4.07
2018-12-31T12:18:27.344Z,3.43
2018-12-31T12:20:57.804Z,3.60
2018-12-31T12:23:27.478Z,3.87
2018-12-31T12:25:57.293Z,3.87
2018-12-31T12:28:27.649Z,3.55
2018-12-31T12:30:58.091Z,3.17
2018-12-31T12:33:27.760Z,3.62
2018-12-31T12:35:57.341Z,3.57
2018-12-31T12:38:27.615Z,1.87
2018-12-31T12:40:57.996Z,2.17
2018-12-31T12:43:27.536Z,1.90
2018-12-31T12:45:57.796Z,1.40
2018-12-31T12:48:27.882Z,2.63
2018-12-31T12:50:57.489Z,2.27
2018-12-31T12:53:27.107Z,1.17
2018-12-31T12:55:57.506Z,1.10
2018-12-31T12:58:27.200Z,1.12
2018-12-31T13:00:57.537Z,1.27
2018-12-31T13:03:27.897Z,1.00
2018-12-31T13:05:57.557Z,1.13
2018-12-31T13:08:27.823Z,1.12
2018-12-31T13:10:58.155Z,0.83
2018-12-31T13:13:27.868Z,1.30
2018-12-31T13:15:57.459Z,1.10
2018-12-31T13:18:27.733Z,1.00
2018-12-31T13:20:58.082Z,1.12
2018-12-31T13:23:27.987Z,1.37
2018-12-31T13:25:57.623Z,1.23
2018-12-31T13:28:27.283Z,1.43
2018-12-31T13:30:57.572Z,1.30
2018-12-31T13:33:27.919Z,1.42
2018-12-31T13:35:57.668Z,1.13
2018-12-31T13:38:27.638Z,1.10
2018-12-31T13:40:57.857Z,1.23
2018-12-31T13:43:27.529Z,1.10
2018-12-31T13:45:57.798Z,3.70
2018-12-31T13:48:27.570Z,1.10
2018-12-31T13:50:57.852Z,1.50
2018-12-31T13:53:27.525Z,1.53
2018-12-31T13:55:58.300Z,1.60
2018-12-31T13:58:28.186Z,1.67
2018-12-31T14:00:58.551Z,1.33
2018-12-31T14:03:28.227Z,1.37
2018-12-31T14:05:57.799Z,1.03
2018-12-31T14:08:27.413Z,1.00
2018-12-31T14:10:57.031Z,2.33
2018-12-31T14:13:26.671Z,1.80
2018-12-31T14:15:56.260Z,1.77
2018-12-31T14:18:25.844Z,1.57
2018-12-31T14:20:56.429Z,1.70
2018-12-31T14:23:26.858Z,1.10
2018-12-31T14:25:57.220Z,1.73
2018-12-31T14:28:27.601Z,1.23
2018-12-31T14:30:57.912Z,1.40
2018-12-31T14:33:27.592Z,1.30
2018-12-31T14:35:57.238Z,1.43
2018-12-31T14:38:26.884Z,1.57
2018-12-31T14:40:56.512Z,1.47
2018-12-31T14:43:26.088Z,1.23
2018-12-31T14:45:55.704Z,1.60
2018-12-31T14:48:25.300Z,1.13
2018-12-31T14:50:55.693Z,1.27
2018-12-31T14:53:26.077Z,1.17
2018-12-31T14:55:56.206Z,1.53
2018-12-31T14:58:25.847Z,1.30
2018-12-31T15:00:56.105Z,1.83
2018-12-31T15:03:26.550Z,1.80
2018-12-31T15:05:56.237Z,1.50
2018-12-31T15:08:26.519Z,4.33
2018-12-31T15:10:56.884Z,1.93
2018-12-31T15:13:27.244Z,2.20
2018-12-31T15:15:57.876Z,1.60
2018-12-31T15:18:28.072Z,2.00
2018-12-31T15:20:57.733Z,2.70
2018-12-31T15:23:28.029Z,1.80
2018-12-31T15:25:58.650Z,2.93
2018-12-31T15:28:28.556Z,2.20
2018-12-31T15:30:58.274Z,2.00
2018-12-31T15:33:28.544Z,5.00
2018-12-31T15:36:00.709Z,2.17
2018-12-31T15:38:30.759Z,2.30
2018-12-31T15:41:02.196Z,2.37
2018-12-31T15:43:32.516Z,2.27
2018-12-31T15:46:02.700Z,3.07
2018-12-31T15:48:32.959Z,2.60
2018-12-31T15:51:03.124Z,3.13
2018-12-31T15:53:32.920Z,2.90
2018-12-31T15:56:04.193Z,3.10
2018-12-31T15:58:34.575Z,3.60
2018-12-31T16:01:04.260Z,2.53
2018-12-31T16:03:33.860Z,5.10
2018-12-31T16:06:04.110Z,3.17
2018-12-31T16:08:33.631Z,4.40
2018-12-31T16:11:03.242Z,4.20
2018-12-31T16:13:32.811Z,3.53
2018-12-31T16:16:02.390Z,3.27
2018-12-31T16:18:31.987Z,3.20
2018-12-31T16:21:02.236Z,3.53
2018-12-31T16:23:31.917Z,3.47
2018-12-31T16:26:02.211Z,3.10
2018-12-31T16:28:33.119Z,4.30
2018-12-31T16:31:03.460Z,3.33
2018-12-31T16:33:33.249Z,3.53
2018-12-31T16:36:02.827Z,3.83
2018-12-31T16:38:32.437Z,5.50
2018-12-31T16:41:03.022Z,4.90
2018-12-31T16:43:33.350Z,4.30
2018-12-31T16:46:03.048Z,4.20
2018-12-31T16:48:32.651Z,5.00
2018-12-31T16:51:02.933Z,4.10
2018-12-31T16:53:33.300Z,3.52
2018-12-31T16:56:03.000Z,2.90
2018-12-31T16:58:32.596Z,2.97
2018-12-31T17:01:02.205Z,2.67
2018-12-31T17:03:31.795Z,2.87
2018-12-31T17:06:02.046Z,3.40
2018-12-31T17:08:31.752Z,4.67
2018-12-31T17:11:01.327Z,3.50
2018-12-31T17:13:31.012Z,3.57
2018-12-31T17:16:00.520Z,3.37
2018-12-31T17:18:30.131Z,2.57
2018-12-31T17:21:00.393Z,4.10
2018-12-31T17:23:30.492Z,4.20
2018-12-31T17:26:00.249Z,4.83
2018-12-31T17:28:30.201Z,4.17
2018-12-31T17:30:59.779Z,4.27
2018-12-31T17:33:29.410Z,3.90
2018-12-31T17:35:58.991Z,5.13
2018-12-31T17:38:29.230Z,4.80
2018-12-31T17:40:59.126Z,4.07
2018-12-31T17:43:28.707Z,6.23
2018-12-31T17:45:58.292Z,7.17
2018-12-31T17:48:27.901Z,5.37
2018-12-31T17:50:58.124Z,4.30
2018-12-31T17:53:27.796Z,4.60
2018-12-31T17:55:58.031Z,8.20
2018-12-31T17:58:28.397Z,7.58
2018-12-31T18:00:58.801Z,6.67
2018-12-31T18:03:28.472Z,5.87
2018-12-31T18:05:58.078Z,6.10
2018-12-31T18:08:27.664Z,6.57
2018-12-31T18:10:57.228Z,7.03
2018-12-31T18:13:27.488Z,6.93
2018-12-31T18:15:57.231Z,6.60
2018-12-31T18:18:26.803Z,6.43
2018-12-31T18:20:57.049Z,9.53
2018-12-31T18:23:27.406Z,14.53
2018-12-31T18:25:57.111Z,8.20
2018-12-31T18:28:27.010Z,8.20
2018-12-31T18:30:57.283Z,8.53
2018-12-31T18:33:26.973Z,12.57
2018-12-31T18:35:57.296Z,10.10
2018-12-31T18:38:27.682Z,9.23
2018-12-31T18:40:58.080Z,9.57
2018-12-31T18:43:27.755Z,9.17
2018-12-31T18:45:57.371Z,11.10
2018-12-31T18:48:26.988Z,11.10
2018-12-31T18:50:56.619Z,13.70
2018-12-31T18:53:26.861Z,9.50
2018-12-31T18:55:57.220Z,11.10
2018-12-31T18:58:27.540Z,10.17
2018-12-31T19:00:57.273Z,13.47
2018-12-31T19:03:27.636Z,12.27
2018-12-31T19:05:58.040Z,10.07
2018-12-31T19:08:28.395Z,12.40
2018-12-31T19:10:58.778Z,14.93
2018-12-31T19:13:28.460Z,11.87
2018-12-31T19:15:58.280Z,9.80
2018-12-31T19:18:28.520Z,10.67
2018-12-31T19:20:58.868Z,10.87
2018-12-31T19:23:28.564Z,10.70
2018-12-31T19:25:58.176Z,12.33
2018-12-31T19:28:28.439Z,12.87
2018-12-31T19:30:59.671Z,10.00
2018-12-31T19:33:30.058Z,11.27
2018-12-31T19:36:00.001Z,12.27
2018-12-31T19:38:29.628Z,12.50
2018-12-31T19:40:59.399Z,13.17
2018-12-31T19:43:29.684Z,9.93
2018-12-31T19:45:59.411Z,10.33
2018-12-31T19:48:29.020Z,11.83
2018-12-31T19:50:58.604Z,18.07
2018-12-31T19:53:28.865Z,16.10
2018-12-31T19:55:58.579Z,13.27
2018-12-31T19:58:28.226Z,13.93
2018-12-31T20:00:57.826Z,10.97
2018-12-31T20:03:28.376Z,10.93
2018-12-31T20:05:58.081Z,13.13
2018-12-31T20:08:28.342Z,11.80
2018-12-31T20:10:58.695Z,12.77
2018-12-31T20:13:28.431Z,14.20
2018-12-31T20:15:58.212Z,11.73
2018-12-31T20:18:28.449Z,11.07
2018-12-31T20:20:58.820Z,14.43
2018-12-31T20:23:29.160Z,13.63
2018-12-31T20:25:58.867Z,10.23
2018-12-31T20:28:32.288Z,12.90
2018-12-31T20:31:01.983Z,12.97
2018-12-31T20:33:31.611Z,11.33
2018-12-31T20:36:01.200Z,13.37
2018-12-31T20:38:30.809Z,11.93
2018-12-31T20:41:00.599Z,13.73
2018-12-31T20:43:30.208Z,14.77
2018-12-31T20:45:59.803Z,13.63
2018-12-31T20:48:29.396Z,15.33
2018-12-31T20:50:58.997Z,15.10
2018-12-31T20:53:28.856Z,11.97
2018-12-31T20:55:58.460Z,14.03
2018-12-31T20:58:28.732Z,10.50
2018-12-31T21:00:59.183Z,13.07
2018-12-31T21:03:28.857Z,14.73
2018-12-31T21:05:59.316Z,13.23
2018-12-31T21:08:28.920Z,11.77
2018-12-31T21:10:58.540Z,12.67
2018-12-31T21:13:28.371Z,12.87
2018-12-31T21:15:58.001Z,13.40
2018-12-31T21:18:28.614Z,11.97
2018-12-31T21:20:58.957Z,14.03
2018-12-31T21:23:28.652Z,13.83
2018-12-31T21:25:58.613Z,14.60
2018-12-31T21:28:28.992Z,17.23
2018-12-31T21:30:59.368Z,14.50
2018-12-31T21:33:29.088Z,12.50
2018-12-31T21:35:58.752Z,16.50
2018-12-31T21:38:28.973Z,18.17
2018-12-31T21:40:59.312Z,16.20
2018-12-31T21:43:29.767Z,16.57
2018-12-31T21:45:59.452Z,15.10
2018-12-31T21:48:29.063Z,11.67
2018-12-31T21:50:59.324Z,12.27
2018-12-31T21:53:29.020Z,14.83
2018-12-31T21:55:58.588Z,12.07
2018-12-31T21:58:28.847Z,10.80
2018-12-31T22:00:59.188Z,11.53
2018-12-31T22:03:29.540Z,10.43
2018-12-31T22:05:59.240Z,11.73
2018-12-31T22:08:28.839Z,12.37
2018-12-31T22:10:59.080Z,12.90
2018-12-31T22:13:29.452Z,10.43
2018-12-31T22:15:59.132Z,9.80
2018-12-31T22:18:28.815Z,9.70
2018-12-31T22:20:59.066Z,8.97
2018-12-31T22:23:29.035Z,12.50
2018-12-31T22:25:58.561Z,18.20
2018-12-31T22:28:28.136Z,12.63
2018-12-31T22:30:58.035Z,13.17
2018-12-31T22:33:28.331Z,14.37
2018-12-31T22:35:58.034Z,11.27
2018-12-31T22:38:28.301Z,11.67
2018-12-31T22:40:58.033Z,9.20
2018-12-31T22:43:28.682Z,11.03
2018-12-31T22:45:59.095Z,8.93
2018-12-31T22:48:29.484Z,12.27
2018-12-31T22:50:59.961Z,9.23
2018-12-31T22:53:30.302Z,10.30
2018-12-31T22:56:00.635Z,9.97
2018-12-31T22:58:30.991Z,9.63
2018-12-31T23:01:01.760Z,7.90
2018-12-31T23:03:32.108Z,74.17
2018-12-31T23:06:02.197Z,16.53
2018-12-31T23:08:32.492Z,9.60
2018-12-31T23:11:02.229Z,16.23
2018-12-31T23:13:36.456Z,13.53
2018-12-31T23:16:07.160Z,8.53
2018-12-31T23:18:37.800Z,10.90
2018-12-31T23:21:07.520Z,11.70
2018-12-31T23:23:37.788Z,13.13
2018-12-31T23:26:08.108Z,10.30
2018-12-31T23:28:38.756Z,11.67
2018-12-31T23:31:09.108Z,10.97
2018-12-31T23:33:39.480Z,14.27
2018-12-31T23:36:09.885Z,8.40
2018-12-31T23:38:40.276Z,14.60
2018-12-31T23:41:10.924Z,9.87
2018-12-31T23:43:41.309Z,12.67
2018-12-31T23:46:11.793Z,12.57
2018-12-31T23:48:42.128Z,9.73
2018-12-31T23:51:12.469Z,8.83
2018-12-31T23:53:42.193Z,11.80
2018-12-31T23:56:11.795Z,11.27
2018-12-31T23:58:42.040Z,12.67
